createdAt,value
2023-03-20T00:02:07.455Z,10.28
2023-03-20T00:04:37.197Z,10.27
2023-03-20T00:07:10.620Z,10.24
2023-03-20T00:09:40.314Z,10.22
2023-03-20T00:12:11.644Z,10.17
2023-03-20T00:14:41.873Z,10.15
2023-03-20T00:17:18.318Z,10.10
2023-03-20T00:19:48.225Z,10.09
2023-03-20T00:22:17.261Z,10.05
2023-03-20T00:24:47.589Z,10.01
2023-03-20T00:27:18.946Z,9.98
2023-03-20T00:29:49.530Z,9.96
2023-03-20T00:32:20.059Z,9.91
2023-03-20T00:34:51.113Z,9.87
2023-03-20T00:37:20.262Z,9.84
2023-03-20T00:39:49.593Z,9.81
2023-03-20T00:42:23.244Z,9.77
2023-03-20T00:44:55.798Z,9.74
2023-03-20T00:47:30.402Z,9.71
2023-03-20T00:50:00.528Z,9.70
2023-03-20T00:52:29.989Z,9.67
2023-03-20T00:54:59.489Z,9.63
2023-03-20T00:57:31.913Z,9.60
2023-03-20T01:00:05.457Z,9.58
2023-03-20T01:02:36.410Z,9.55
2023-03-20T01:05:06.692Z,9.50
2023-03-20T01:07:36.074Z,9.47
2023-03-20T01:10:05.770Z,9.43
2023-03-20T01:12:35.413Z,9.41
2023-03-20T01:15:05.071Z,9.37
2023-03-20T01:17:35.501Z,9.32
2023-03-20T01:20:11.146Z,9.28
2023-03-20T01:22:40.583Z,9.28
2023-03-20T01:25:11.553Z,9.26
2023-03-20T01:27:41.162Z,9.23
2023-03-20T01:30:21.514Z,9.19
2023-03-20T01:32:53.141Z,9.15
2023-03-20T01:35:25.364Z,9.14
2023-03-20T01:37:56.327Z,9.11
2023-03-20T01:40:38.728Z,9.05
2023-03-20T01:43:14.479Z,9.04
2023-03-20T01:45:53.969Z,9.03
2023-03-20T01:48:28.934Z,9.04
2023-03-20T01:50:58.653Z,9.04
2023-03-20T01:53:30.013Z,9.03
2023-03-20T01:56:03.438Z,8.99
2023-03-20T01:58:45.805Z,8.97
2023-03-20T02:01:16.877Z,8.96
2023-03-20T02:03:51.918Z,8.94
2023-03-20T02:06:41.909Z,8.93
2023-03-20T02:09:17.577Z,8.92
2023-03-20T02:11:48.917Z,8.91
2023-03-20T02:14:21.278Z,8.90
2023-03-20T02:17:03.641Z,8.90
2023-03-20T02:19:55.624Z,8.87
2023-03-20T02:22:56.106Z,8.85
2023-03-20T02:26:00.579Z,8.82
2023-03-20T02:29:04.320Z,8.79
2023-03-20T02:32:23.488Z,8.73
2023-03-20T02:35:25.934Z,8.71
2023-03-20T02:38:23.683Z,8.68
2023-03-20T02:41:03.347Z,8.63
2023-03-20T02:43:44.028Z,8.61
2023-03-20T02:46:21.899Z,8.53
2023-03-20T02:48:58.358Z,8.54
2023-03-20T02:51:37.243Z,8.50
2023-03-20T02:54:15.412Z,8.47
2023-03-20T02:56:57.329Z,8.45
2023-03-20T02:59:33.525Z,8.42
2023-03-20T03:02:08.753Z,8.40
2023-03-20T03:04:41.185Z,8.37
2023-03-20T03:07:13.314Z,8.36
2023-03-20T03:09:49.335Z,8.34
2023-03-20T03:12:22.517Z,8.28
2023-03-20T03:14:54.719Z,8.30
2023-03-20T03:17:27.555Z,8.31
2023-03-20T03:20:02.069Z,8.32
2023-03-20T03:22:36.486Z,8.31
2023-03-20T03:25:07.976Z,8.25
2023-03-20T03:27:41.449Z,8.23
2023-03-20T03:31:17.752Z,8.24
2023-03-20T03:33:51.352Z,8.18
2023-03-20T03:36:31.368Z,8.19
2023-03-20T03:39:07.880Z,8.18
2023-03-20T03:41:44.564Z,8.19
2023-03-20T03:44:21.152Z,8.22
2023-03-20T03:46:55.326Z,8.22
2023-03-20T03:49:28.644Z,8.24
2023-03-20T03:52:03.727Z,8.23
2023-03-20T03:54:41.970Z,8.24
2023-03-20T03:57:51.969Z,8.24
2023-03-20T04:00:26.282Z,8.24
2023-03-20T04:02:58.043Z,8.25
2023-03-20T04:05:33.431Z,8.25
2023-03-20T04:08:04.595Z,8.24
2023-03-20T04:10:34.619Z,8.24
2023-03-20T04:13:05.571Z,8.25
2023-03-20T04:15:35.419Z,8.26
2023-03-20T04:18:05.294Z,8.26
2023-03-20T04:20:35.496Z,8.27
2023-03-20T04:23:07.730Z,8.26
2023-03-20T04:25:38.525Z,8.28
2023-03-20T04:28:09.311Z,8.28
2023-03-20T04:30:54.583Z,8.28
2023-03-20T04:33:32.239Z,8.29
2023-03-20T04:36:22.114Z,8.29
2023-03-20T04:38:56.313Z,8.29
2023-03-20T04:41:27.213Z,8.30
2023-03-20T04:44:00.692Z,8.29
2023-03-20T04:46:31.111Z,8.29
2023-03-20T04:49:01.436Z,8.31
2023-03-20T04:51:32.846Z,8.31
2023-03-20T04:54:01.885Z,8.31
2023-03-20T04:56:31.406Z,8.30
2023-03-20T04:59:18.137Z,8.28
2023-03-20T05:01:47.614Z,8.29
2023-03-20T05:04:16.867Z,8.30
2023-03-20T05:06:49.125Z,8.30
2023-03-20T05:09:20.426Z,8.30
2023-03-20T05:11:51.473Z,8.31
2023-03-20T05:14:43.846Z,8.32
2023-03-20T05:17:27.857Z,8.35
2023-03-20T05:20:18.032Z,8.33
2023-03-20T05:22:57.360Z,8.34
2023-03-20T05:25:45.709Z,8.33
2023-03-20T05:28:33.674Z,8.35
2023-03-20T05:31:16.784Z,8.36
2023-03-20T05:34:06.750Z,8.37
2023-03-20T05:36:52.027Z,8.39
2023-03-20T05:39:39.859Z,8.39
2023-03-20T05:42:20.590Z,8.41
2023-03-20T05:45:22.581Z,8.41
2023-03-20T05:48:13.368Z,8.41
2023-03-20T05:51:18.167Z,8.42
2023-03-20T05:54:17.426Z,8.45
2023-03-20T05:57:07.195Z,8.47
2023-03-20T05:59:47.619Z,8.49
2023-03-20T06:02:36.032Z,8.53
2023-03-20T06:05:16.868Z,8.56
2023-03-20T06:07:52.220Z,8.60
2023-03-20T06:10:22.412Z,8.60
2023-03-20T06:12:53.491Z,8.64
2023-03-20T06:15:27.329Z,8.70
2023-03-20T06:18:03.951Z,8.75
2023-03-20T06:20:35.094Z,8.77
2023-03-20T06:23:06.705Z,8.82
2023-03-20T06:25:36.799Z,8.85
2023-03-20T06:28:06.828Z,8.89
2023-03-20T06:30:37.299Z,8.94
2023-03-20T06:33:09.170Z,8.98
2023-03-20T06:35:51.412Z,9.03
2023-03-20T06:38:21.017Z,9.09
2023-03-20T06:40:50.642Z,9.12
2023-03-20T06:43:21.419Z,9.17
2023-03-20T06:45:54.175Z,9.22
2023-03-20T06:48:29.717Z,9.27
2023-03-20T06:51:00.624Z,9.33
2023-03-20T06:53:37.269Z,9.40
2023-03-20T06:56:10.142Z,9.46
2023-03-20T06:58:42.559Z,9.54
2023-03-20T07:01:15.869Z,9.62
2023-03-20T07:03:46.439Z,9.68
2023-03-20T07:06:19.346Z,9.74
2023-03-20T07:08:50.808Z,9.83
2023-03-20T07:11:21.120Z,9.90
2023-03-20T07:13:51.986Z,9.98
2023-03-20T07:16:31.461Z,10.03
2023-03-20T07:19:01.164Z,10.12
2023-03-20T07:21:33.105Z,10.17
2023-03-20T07:24:03.098Z,10.22
2023-03-20T07:26:33.345Z,10.30
2023-03-20T07:29:03.326Z,10.36
2023-03-20T07:31:34.011Z,10.39
2023-03-20T07:34:12.220Z,10.48
2023-03-20T07:36:44.650Z,10.55
2023-03-20T07:39:17.155Z,10.64
2023-03-20T07:41:53.619Z,10.70
2023-03-20T07:44:39.569Z,10.76
2023-03-20T07:47:12.882Z,10.84
2023-03-20T07:49:43.305Z,10.87
2023-03-20T07:52:14.001Z,10.94
2023-03-20T07:54:43.684Z,11.03
2023-03-20T07:57:12.806Z,11.10
2023-03-20T07:59:42.471Z,11.20
2023-03-20T08:02:15.972Z,11.29
2023-03-20T08:04:46.448Z,11.43
2023-03-20T08:07:21.016Z,11.47
2023-03-20T08:09:50.641Z,11.56
2023-03-20T08:12:20.386Z,11.63
2023-03-20T08:14:50.202Z,11.67
2023-03-20T08:17:21.736Z,11.77
2023-03-20T08:19:51.393Z,11.82
2023-03-20T08:22:21.885Z,11.89
2023-03-20T08:24:53.921Z,11.97
2023-03-20T08:27:23.038Z,12.07
2023-03-20T08:29:53.400Z,12.13
2023-03-20T08:32:22.752Z,12.18
2023-03-20T08:34:55.157Z,12.26
2023-03-20T08:37:27.563Z,12.32
2023-03-20T08:39:57.604Z,12.36
2023-03-20T08:42:27.207Z,12.41
2023-03-20T08:44:56.649Z,12.43
2023-03-20T08:47:26.307Z,12.52
2023-03-20T08:49:55.961Z,12.61
2023-03-20T08:52:28.356Z,12.66
2023-03-20T08:54:57.888Z,12.70
2023-03-20T08:57:27.227Z,12.78
2023-03-20T08:59:56.673Z,12.84
2023-03-20T09:02:25.860Z,12.82
2023-03-20T09:04:56.868Z,12.96
2023-03-20T09:07:32.423Z,12.99
2023-03-20T09:10:02.131Z,13.10
2023-03-20T09:12:32.838Z,13.19
2023-03-20T09:15:04.641Z,13.25
2023-03-20T09:17:36.244Z,13.29
2023-03-20T09:20:07.529Z,13.32
2023-03-20T09:22:41.313Z,13.42
2023-03-20T09:25:13.021Z,13.52
2023-03-20T09:27:42.311Z,13.70
2023-03-20T09:30:12.087Z,13.82
2023-03-20T09:32:43.289Z,13.89
2023-03-20T09:35:12.449Z,13.96
2023-03-20T09:37:44.373Z,14.02
2023-03-20T09:40:25.385Z,14.09
2023-03-20T09:43:08.692Z,14.15
2023-03-20T09:45:51.569Z,14.21
2023-03-20T09:48:31.281Z,14.33
2023-03-20T09:51:08.509Z,14.40
2023-03-20T09:53:43.504Z,14.48
2023-03-20T09:56:18.781Z,14.53
2023-03-20T09:58:53.957Z,14.56
2023-03-20T10:01:25.898Z,14.68
2023-03-20T10:03:57.997Z,14.77
2023-03-20T10:06:27.450Z,14.78
2023-03-20T10:09:07.524Z,14.78
2023-03-20T10:12:11.245Z,14.79
2023-03-20T10:14:49.737Z,14.81
2023-03-20T10:17:34.432Z,14.87
2023-03-20T10:20:14.734Z,14.88
2023-03-20T10:22:49.131Z,14.92
2023-03-20T10:25:29.984Z,14.94
2023-03-20T10:28:02.165Z,15.06
2023-03-20T10:30:47.982Z,15.08
2023-03-20T10:33:35.331Z,15.09
2023-03-20T10:36:18.802Z,14.98
2023-03-20T10:39:02.276Z,14.92
2023-03-20T10:41:37.621Z,14.82
2023-03-20T10:44:22.573Z,14.72
2023-03-20T10:46:55.670Z,14.62
2023-03-20T10:49:35.257Z,14.58
2023-03-20T10:52:06.380Z,14.55
2023-03-20T10:54:47.216Z,14.50
2023-03-20T10:57:24.353Z,14.48
2023-03-20T10:59:58.472Z,14.44
2023-03-20T11:02:31.657Z,14.43
2023-03-20T11:05:02.711Z,14.40
2023-03-20T11:07:36.709Z,14.40
2023-03-20T11:10:12.297Z,14.40
2023-03-20T11:12:45.420Z,14.38
2023-03-20T11:15:25.019Z,14.41
2023-03-20T11:17:59.374Z,14.34
2023-03-20T11:20:34.785Z,14.29
2023-03-20T11:23:06.310Z,14.29
2023-03-20T11:25:38.493Z,14.28
2023-03-20T11:28:40.003Z,14.29
2023-03-20T11:31:18.749Z,14.29
2023-03-20T11:33:52.553Z,14.30
2023-03-20T11:36:30.024Z,14.29
2023-03-20T11:39:05.870Z,14.30
2023-03-20T11:41:36.124Z,14.29
2023-03-20T11:44:22.069Z,14.26
2023-03-20T11:46:57.979Z,14.24
2023-03-20T11:49:29.612Z,14.23
2023-03-20T11:52:03.631Z,14.24
2023-03-20T11:54:33.272Z,14.21
2023-03-20T11:57:02.808Z,14.23
2023-03-20T11:59:37.089Z,14.24
2023-03-20T12:02:21.094Z,14.17
2023-03-20T12:04:50.298Z,14.08
2023-03-20T12:07:20.720Z,14.07
2023-03-20T12:09:55.429Z,14.03
2023-03-20T12:12:41.026Z,14.00
2023-03-20T12:15:20.188Z,14.01
2023-03-20T12:17:52.658Z,13.94
2023-03-20T12:20:31.637Z,13.93
2023-03-20T12:23:13.388Z,13.91
2023-03-20T12:25:50.758Z,13.87
2023-03-20T12:28:26.559Z,13.84
2023-03-20T12:31:13.291Z,13.80
2023-03-20T12:33:47.158Z,13.75
2023-03-20T12:36:18.814Z,13.76
2023-03-20T12:38:48.554Z,13.76
2023-03-20T12:41:21.253Z,13.85
2023-03-20T12:44:17.186Z,13.90
2023-03-20T12:46:55.731Z,13.96
2023-03-20T12:49:38.813Z,14.03
2023-03-20T12:52:16.417Z,14.08
2023-03-20T12:54:55.848Z,14.04
2023-03-20T12:57:34.393Z,13.99
2023-03-20T13:00:24.980Z,13.96
2023-03-20T13:03:11.831Z,13.90
2023-03-20T13:05:47.565Z,13.95
2023-03-20T13:08:37.529Z,13.94
2023-03-20T13:11:17.091Z,13.92
2023-03-20T13:13:51.371Z,13.90
2023-03-20T13:16:32.389Z,13.86
2023-03-20T13:19:08.701Z,13.82
2023-03-20T13:21:45.189Z,13.79
2023-03-20T13:24:28.852Z,13.78
2023-03-20T13:27:09.192Z,13.79
2023-03-20T13:29:48.497Z,13.75
2023-03-20T13:32:23.524Z,13.73
2023-03-20T13:35:07.478Z,13.67
2023-03-20T13:37:42.726Z,13.56
2023-03-20T13:40:18.058Z,13.48
2023-03-20T13:42:56.024Z,13.33
2023-03-20T13:45:35.157Z,13.13
2023-03-20T13:48:11.562Z,13.01
2023-03-20T13:50:49.962Z,12.84
2023-03-20T13:53:30.027Z,12.66
2023-03-20T13:56:07.382Z,12.54
2023-03-20T13:58:59.000Z,12.38
2023-03-20T14:01:38.215Z,12.26
2023-03-20T14:04:15.562Z,12.11
2023-03-20T14:06:59.579Z,11.93
2023-03-20T14:09:32.708Z,11.85
2023-03-20T14:12:07.156Z,11.74
2023-03-20T14:14:44.607Z,11.62
2023-03-20T14:17:20.928Z,11.50
2023-03-20T14:19:51.803Z,11.49
2023-03-20T14:22:25.394Z,11.40
2023-03-20T14:25:02.098Z,11.29
2023-03-20T14:27:55.479Z,11.18
2023-03-20T14:30:42.914Z,11.06
2023-03-20T14:33:31.317Z,10.99
2023-03-20T14:36:20.815Z,10.94
2023-03-20T14:39:06.874Z,10.84
2023-03-20T14:41:50.586Z,10.80
2023-03-20T14:44:35.114Z,10.73
2023-03-20T14:47:18.105Z,10.66
2023-03-20T14:49:55.401Z,10.65
2023-03-20T14:52:43.983Z,10.62
2023-03-20T14:55:32.510Z,10.60
2023-03-20T14:58:06.757Z,10.57
2023-03-20T15:00:46.383Z,10.55
2023-03-20T15:03:18.633Z,10.49
2023-03-20T15:05:57.476Z,10.45
2023-03-20T15:08:30.439Z,10.42
2023-03-20T15:11:06.313Z,10.46
2023-03-20T15:13:37.555Z,10.42
2023-03-20T15:16:09.555Z,10.43
2023-03-20T15:18:41.868Z,10.41
2023-03-20T15:21:15.106Z,10.32
2023-03-20T15:23:48.282Z,10.37
2023-03-20T15:26:25.320Z,10.35
2023-03-20T15:29:01.838Z,10.36
2023-03-20T15:31:34.036Z,10.32
2023-03-20T15:34:20.981Z,10.35
2023-03-20T15:36:51.942Z,10.39
2023-03-20T15:39:24.877Z,10.31
2023-03-20T15:41:57.348Z,10.27
2023-03-20T15:44:29.286Z,10.38
2023-03-20T15:47:02.444Z,10.47
2023-03-20T15:49:34.165Z,10.44
2023-03-20T15:52:08.045Z,10.49
2023-03-20T15:54:38.292Z,10.49
2023-03-20T15:57:08.383Z,10.53
2023-03-20T15:59:38.706Z,10.58
2023-03-20T16:02:12.835Z,10.52
2023-03-20T16:04:48.709Z,10.56
2023-03-20T16:07:30.362Z,10.50
2023-03-20T16:10:00.573Z,10.49
2023-03-20T16:12:30.624Z,10.47
2023-03-20T16:15:00.835Z,10.43
2023-03-20T16:17:31.888Z,10.36
2023-03-20T16:20:05.010Z,10.38
2023-03-20T16:22:38.521Z,10.34
2023-03-20T16:25:15.203Z,10.35
2023-03-20T16:27:51.133Z,10.29
2023-03-20T16:30:25.296Z,10.36
2023-03-20T16:33:01.264Z,10.31
2023-03-20T16:35:38.856Z,10.33
2023-03-20T16:38:24.246Z,10.33
2023-03-20T16:41:08.783Z,10.32
2023-03-20T16:43:41.591Z,10.26
2023-03-20T16:46:18.500Z,10.19
2023-03-20T16:48:48.403Z,10.18
2023-03-20T16:51:23.232Z,10.12
2023-03-20T16:53:56.434Z,10.03
2023-03-20T16:56:28.824Z,9.98
2023-03-20T16:59:08.458Z,9.94
2023-03-20T17:01:43.203Z,9.89
2023-03-20T17:04:20.108Z,9.94
2023-03-20T17:06:53.814Z,9.87
2023-03-20T17:09:28.482Z,9.89
2023-03-20T17:12:06.671Z,9.87
2023-03-20T17:14:41.763Z,9.79
2023-03-20T17:17:14.745Z,9.89
2023-03-20T17:19:47.293Z,9.76
2023-03-20T17:22:20.324Z,9.75
2023-03-20T17:24:50.142Z,9.83
2023-03-20T17:27:22.302Z,9.70
2023-03-20T17:29:55.866Z,9.71
2023-03-20T17:32:25.111Z,9.66
2023-03-20T17:34:57.734Z,9.59
2023-03-20T17:37:30.881Z,9.50
2023-03-20T17:40:02.412Z,9.48
2023-03-20T17:42:32.481Z,9.42
2023-03-20T17:45:07.112Z,9.36
2023-03-20T17:47:37.893Z,9.28
2023-03-20T17:50:10.918Z,9.30
2023-03-20T17:52:43.858Z,9.25
2023-03-20T17:55:14.867Z,9.18
2023-03-20T17:57:46.601Z,9.18
2023-03-20T18:00:20.614Z,9.23
2023-03-20T18:02:52.804Z,9.20
2023-03-20T18:05:23.748Z,9.15
2023-03-20T18:07:56.794Z,9.09
2023-03-20T18:10:34.142Z,9.08
2023-03-20T18:13:05.476Z,8.99
2023-03-20T18:15:35.666Z,9.06
2023-03-20T18:18:07.862Z,8.99
2023-03-20T18:20:43.359Z,8.95
2023-03-20T18:23:14.744Z,9.03
2023-03-20T18:25:47.172Z,8.99
2023-03-20T18:28:23.217Z,8.98
2023-03-20T18:30:54.102Z,8.94
2023-03-20T18:33:27.705Z,8.88
2023-03-20T18:35:58.115Z,8.85
2023-03-20T18:38:31.058Z,8.85
2023-03-20T18:41:04.019Z,8.78
2023-03-20T18:43:33.997Z,8.75
2023-03-20T18:46:06.095Z,8.70
2023-03-20T18:48:39.894Z,8.70
2023-03-20T18:51:10.420Z,8.68
2023-03-20T18:53:43.839Z,8.68
2023-03-20T18:56:19.509Z,8.62
2023-03-20T18:58:51.938Z,8.61
2023-03-20T19:01:25.468Z,8.59
2023-03-20T19:03:55.104Z,8.54
2023-03-20T19:06:26.140Z,8.55
2023-03-20T19:08:58.117Z,8.48
2023-03-20T19:11:27.952Z,8.51
2023-03-20T19:13:57.029Z,8.50
2023-03-20T19:16:31.651Z,8.50
2023-03-20T19:19:02.946Z,8.54
2023-03-20T19:21:34.952Z,8.47
2023-03-20T19:24:08.786Z,8.40
2023-03-20T19:26:41.551Z,8.42
2023-03-20T19:29:14.098Z,8.41
2023-03-20T19:31:44.063Z,8.41
2023-03-20T19:34:39.078Z,8.45
2023-03-20T19:37:07.082Z,8.38
2023-03-20T19:39:37.608Z,8.38
2023-03-20T19:42:32.193Z,8.31
2023-03-20T19:44:57.304Z,8.34
2023-03-20T19:47:27.062Z,8.35
2023-03-20T19:49:58.592Z,8.37
2023-03-20T19:52:34.562Z,8.36
2023-03-20T19:55:05.750Z,8.33
2023-03-20T19:57:40.116Z,8.29
2023-03-20T20:00:55.651Z,8.32
2023-03-20T20:03:08.007Z,8.32
2023-03-20T20:05:39.459Z,8.32
2023-03-20T20:08:25.866Z,8.33
2023-03-20T20:10:59.372Z,8.34
2023-03-20T20:13:33.765Z,8.30
2023-03-20T20:16:05.110Z,8.18
2023-03-20T20:18:38.718Z,8.25
2023-03-20T20:22:02.472Z,8.33
2023-03-20T20:23:59.177Z,8.25
2023-03-20T20:26:31.352Z,8.23
2023-03-20T20:29:04.918Z,8.28
2023-03-20T20:31:34.444Z,8.21
2023-03-20T20:34:55.547Z,8.28
2023-03-20T20:37:43.997Z,8.25
2023-03-20T20:39:46.549Z,8.26
2023-03-20T20:42:18.168Z,8.20
2023-03-20T20:44:48.235Z,8.13
2023-03-20T20:47:17.998Z,8.17
2023-03-20T20:49:48.572Z,8.11
2023-03-20T20:52:18.017Z,8.15
2023-03-20T20:54:48.467Z,8.16
2023-03-20T20:57:19.096Z,8.19
2023-03-20T20:59:48.636Z,8.20
2023-03-20T21:02:18.116Z,8.19
2023-03-20T21:04:48.406Z,8.17
2023-03-20T21:07:17.760Z,8.20
2023-03-20T21:09:47.922Z,8.17
2023-03-20T21:12:33.552Z,8.21
2023-03-20T21:15:08.500Z,8.11
2023-03-20T21:17:57.868Z,8.14
2023-03-20T21:20:31.452Z,8.18
2023-03-20T21:23:03.269Z,8.16
2023-03-20T21:25:40.772Z,8.18
2023-03-20T21:28:15.852Z,8.08
2023-03-20T21:31:12.421Z,8.13
2023-03-20T21:33:39.175Z,8.11
2023-03-20T21:36:11.642Z,8.14
2023-03-20T21:39:06.935Z,8.10
2023-03-20T21:41:33.228Z,8.05
2023-03-20T21:44:06.438Z,8.05
2023-03-20T21:47:39.839Z,8.06
2023-03-20T21:58:56.317Z,8.10
2023-03-20T22:01:46.043Z,8.10
2023-03-20T22:04:31.858Z,8.10
2023-03-20T22:18:28.675Z,8.07
2023-03-20T22:27:10.837Z,8.08
2023-03-20T22:29:53.259Z,8.14
2023-03-20T22:32:44.128Z,8.12
2023-03-20T22:35:46.851Z,8.09
2023-03-20T22:38:29.256Z,8.12
2023-03-20T22:47:13.695Z,8.07
2023-03-20T22:49:56.710Z,8.17
2023-03-20T22:52:37.782Z,8.14
2023-03-20T22:55:11.677Z,8.08
2023-03-20T22:57:47.685Z,8.14
2023-03-20T23:00:25.145Z,8.07
2023-03-20T23:03:00.185Z,8.07
2023-03-20T23:05:36.499Z,8.17
2023-03-20T23:08:06.600Z,8.16
2023-03-20T23:10:38.026Z,8.20
2023-03-20T23:13:07.580Z,8.14
2023-03-20T23:15:36.966Z,8.19
2023-03-20T23:18:06.750Z,8.22
2023-03-20T23:20:37.987Z,8.19
2023-03-20T23:23:07.439Z,8.14
2023-03-20T23:25:39.661Z,8.16
2023-03-20T23:28:10.392Z,8.10
2023-03-20T23:30:56.709Z,8.06
2023-03-20T23:33:29.429Z,8.15
2023-03-20T23:36:14.301Z,8.20
2023-03-20T23:38:48.921Z,8.23
2023-03-20T23:41:19.039Z,8.23
2023-03-20T23:43:48.609Z,8.23
2023-03-20T23:46:17.986Z,8.19
2023-03-20T23:48:47.436Z,8.20
2023-03-20T23:51:18.178Z,8.18
2023-03-20T23:53:47.358Z,8.18
2023-03-20T23:56:16.927Z,8.22
2023-03-20T23:58:54.947Z,8.15
